createdAt,value
2024-04-18T00:05:19.904Z,9.7941
2024-04-18T00:15:40.875Z,9.7586
2024-04-18T00:26:01.781Z,9.7143
2024-04-18T00:36:22.807Z,9.6763
2024-04-18T00:46:43.700Z,9.6318
2024-04-18T00:57:04.624Z,9.5992
2024-04-18T01:07:25.447Z,9.5627
2024-04-18T01:17:46.164Z,9.5282
2024-04-18T01:27:55.026Z,9.4931
2024-04-18T01:38:16.037Z,9.4590
2024-04-18T01:48:36.716Z,9.4269
2024-04-18T01:58:57.304Z,9.4008
2024-04-18T02:09:17.938Z,9.3755
2024-04-18T02:19:38.391Z,9.3535
2024-04-18T02:29:59.099Z,9.3339
2024-04-18T02:40:19.819Z,9.3161
2024-04-18T02:50:40.329Z,9.2935
2024-04-18T03:01:01.033Z,9.2794
2024-04-18T03:11:21.751Z,9.2627
2024-04-18T03:21:42.155Z,9.2392
2024-04-18T03:32:02.920Z,9.2259
2024-04-18T03:42:23.098Z,9.2031
2024-04-18T03:52:43.351Z,9.1855
2024-04-18T04:03:03.154Z,9.1682
2024-04-18T04:13:22.600Z,9.1482
2024-04-18T04:23:42.208Z,9.1294
2024-04-18T04:34:01.681Z,9.1022
2024-04-18T04:44:21.223Z,9.0835
2024-04-18T04:54:40.628Z,9.0676
2024-04-18T05:05:00.339Z,9.0431
2024-04-18T05:15:20.096Z,9.0186
2024-04-18T05:25:40.276Z,8.9943
2024-04-18T05:36:00.634Z,8.9643
2024-04-18T05:46:20.866Z,8.9243
2024-04-18T05:56:41.101Z,8.8804
2024-04-18T06:07:01.626Z,8.8327
2024-04-18T06:17:21.628Z,8.7837
2024-04-18T06:27:41.929Z,8.7237
2024-04-18T06:38:02.019Z,8.6673
2024-04-18T06:48:22.201Z,8.6198
2024-04-18T06:58:42.265Z,8.5686
2024-04-18T07:09:02.824Z,8.5263
2024-04-18T07:19:23.103Z,8.4863
2024-04-18T07:29:44.049Z,8.4549
2024-04-18T07:39:52.804Z,8.4144
2024-04-18T07:50:12.544Z,8.3818
2024-04-18T08:00:34.843Z,8.3427
2024-04-18T08:11:00.178Z,8.3048
2024-04-18T08:20:56.447Z,8.2688
2024-04-18T08:31:16.868Z,8.2396
2024-04-18T08:41:40.191Z,8.2180
2024-04-18T08:51:50.521Z,8.1967
2024-04-18T09:02:10.921Z,8.1729
2024-04-18T09:12:31.120Z,8.1561
2024-04-18T09:22:50.975Z,8.1414
2024-04-18T09:33:11.007Z,8.1292
2024-04-18T09:43:30.719Z,8.1173
2024-04-18T09:53:50.782Z,8.1316
2024-04-18T10:03:59.552Z,8.1498
2024-04-18T10:14:19.657Z,8.1871
2024-04-18T10:24:39.910Z,8.2324
2024-04-18T10:34:59.987Z,8.2810
2024-04-18T10:45:20.496Z,8.3357
2024-04-18T10:55:40.652Z,8.3953
2024-04-18T11:06:00.942Z,8.4535
2024-04-18T11:16:21.824Z,8.5196
2024-04-18T11:26:42.468Z,8.5733
2024-04-18T11:37:02.478Z,8.6143
2024-04-18T11:47:22.787Z,8.6512
2024-04-18T11:57:43.604Z,8.6892
2024-04-18T12:08:03.746Z,8.7147
2024-04-18T12:18:24.484Z,8.7349
2024-04-18T12:28:44.339Z,8.7686
2024-04-18T12:39:07.013Z,8.8106
2024-04-18T12:49:15.552Z,8.8669
2024-04-18T12:59:36.397Z,8.9247
2024-04-18T13:09:57.965Z,8.9973
2024-04-18T13:20:05.911Z,9.0808
2024-04-18T13:30:26.450Z,9.1808
2024-04-18T13:40:35.308Z,9.2996
2024-04-18T13:50:55.395Z,9.4061
2024-04-18T14:01:15.903Z,9.4867
2024-04-18T14:11:36.108Z,9.5451
2024-04-18T14:21:56.339Z,9.5788
2024-04-18T14:32:16.754Z,9.5908
2024-04-18T14:42:37.647Z,9.5676
2024-04-18T14:52:58.414Z,9.5149
2024-04-18T15:03:18.611Z,9.4643
2024-04-18T15:13:39.174Z,9.4202
2024-04-18T15:23:59.545Z,9.3924
2024-04-18T15:34:20.212Z,9.3747
2024-04-18T15:44:40.810Z,9.3622
2024-04-18T15:55:09.092Z,9.3508
2024-04-18T16:05:14.656Z,9.3512
2024-04-18T16:15:35.144Z,9.3524
2024-04-18T16:25:55.379Z,9.3616
2024-04-18T16:36:27.592Z,9.3757
2024-04-18T16:46:29.437Z,9.3823
2024-04-18T16:56:49.658Z,9.3878
2024-04-18T17:07:10.691Z,9.3998
2024-04-18T17:17:31.280Z,9.4037
2024-04-18T17:27:52.174Z,9.3971
2024-04-18T17:38:12.503Z,9.4020
2024-04-18T17:48:33.428Z,9.3927
2024-04-18T17:58:54.109Z,9.3810
2024-04-18T18:09:14.438Z,9.3661
2024-04-18T18:19:34.505Z,9.3484
2024-04-18T18:29:54.355Z,9.3235
2024-04-18T18:40:14.839Z,9.3004
2024-04-18T18:50:34.917Z,9.2671
2024-04-18T19:00:44.879Z,9.2385
2024-04-18T19:11:05.657Z,9.1978
2024-04-18T19:21:25.877Z,9.1706
2024-04-18T19:31:46.346Z,9.1392
2024-04-18T19:42:06.583Z,9.1078
2024-04-18T19:52:26.704Z,9.0808
2024-04-18T20:02:47.432Z,9.0488
2024-04-18T20:13:07.238Z,9.0233
2024-04-18T20:23:27.510Z,8.9965
2024-04-18T20:33:47.266Z,8.9671
2024-04-18T20:44:07.340Z,8.9453
2024-04-18T20:54:27.688Z,8.9204
2024-04-18T21:04:48.280Z,8.8941
2024-04-18T21:15:08.895Z,8.8690
2024-04-18T21:25:29.552Z,8.8420
2024-04-18T21:35:50.356Z,8.8069
2024-04-18T21:46:10.609Z,8.7735
2024-04-18T21:56:31.147Z,8.7341
2024-04-18T22:06:51.521Z,8.7016
2024-04-18T22:17:11.774Z,8.6669
2024-04-18T22:27:32.214Z,8.6388
2024-04-18T22:37:52.933Z,8.6104
2024-04-18T22:48:13.640Z,8.5849
2024-04-18T22:58:34.108Z,8.5610
2024-04-18T23:08:54.194Z,8.5322
2024-04-18T23:19:15.282Z,8.4982
2024-04-18T23:29:35.495Z,8.4700
2024-04-18T23:39:55.338Z,8.4318
2024-04-18T23:50:15.832Z,8.3998
